Terminal Aerodrome Forecast
Issued by NWS Upton, NY

Home | Current Version | Previous Version | Text Only | Print | Product List | Glossary On
Versions: 1 2 3 4 5 6 7 8 9 10 11 12 13 14 15 16 17 18 19 20 21 22 23 24 25 26 27 28 29 30 31 32 33
000
FTUS41 KOKX 161128
TAFISP
TAF
KISP 161128Z 1612/1712 VRB05KT P6SM OVC010 PROB30 1703/1706 6SM -SN
     FM170600 VRB04KT 5SM -SN OVC010
     FM170800 05008KT 2SM -RASN OVC008=

USA.gov is the U.S. government's official web portal to all federal, state and local government web resources and services.